sensor_id;sensor_type;location;lat;lon;timestamp;pressure;altitude;pressure_sealevel;temperature;humidity
63970;BME280;50156;37.772;-122.432;2022-10-26T00:01:24;101309.66;;;15.95;100.00
63970;BME280;50156;37.772;-122.432;2022-10-26T00:03:55;101305.94;;;15.81;100.00
63970;BME280;50156;37.772;-122.432;2022-10-26T00:06:25;101296.10;;;15.58;100.00
63970;BME280;50156;37.772;-122.432;2022-10-26T00:08:54;101288.02;;;15.46;100.00
63970;BME280;50156;37.772;-122.432;2022-10-26T00:11:24;101285.35;;;15.55;100.00
63970;BME280;50156;37.772;-122.432;2022-10-26T00:13:53;101278.57;;;15.32;100.00
63970;BME280;50156;37.772;-122.432;2022-10-26T00:16:24;101279.55;;;15.10;100.00
63970;BME280;50156;37.772;-122.432;2022-10-26T00:18:54;101278.46;;;14.94;100.00
63970;BME280;50156;37.772;-122.432;2022-10-26T00:21:23;101282.91;;;14.84;100.00
63970;BME280;50156;37.772;-122.432;2022-10-26T00:23:53;101282.98;;;14.96;100.00
63970;BME280;50156;37.772;-122.432;2022-10-26T00:26:22;101287.04;;;14.92;100.00
63970;BME280;50156;37.772;-122.432;2022-10-26T00:28:53;101280.82;;;14.73;100.00
63970;BME280;50156;37.772;-122.432;2022-10-26T00:31:22;101282.85;;;14.79;100.00
63970;BME280;50156;37.772;-122.432;2022-10-26T00:33:52;101275.48;;;14.66;100.00
63970;BME280;50156;37.772;-122.432;2022-10-26T00:36:22;101268.34;;;14.54;100.00
63970;BME280;50156;37.772;-122.432;2022-10-26T00:38:52;101256.71;;;14.43;100.00
63970;BME280;50156;37.772;-122.432;2022-10-26T00:41:23;101257.33;;;14.29;100.00
63970;BME280;50156;37.772;-122.432;2022-10-26T00:43:54;101260.84;;;14.25;100.00
63970;BME280;50156;37.772;-122.432;2022-10-26T00:46:25;101256.96;;;14.09;100.00
63970;BME280;50156;37.772;-122.432;2022-10-26T00:48:57;101253.41;;;13.98;100.00
63970;BME280;50156;37.772;-122.432;2022-10-26T00:51:32;101257.41;;;13.84;100.00
63970;BME280;50156;37.772;-122.432;2022-10-26T00:54:04;101253.05;;;13.82;100.00
63970;BME280;50156;37.772;-122.432;2022-10-26T00:56:34;101249.80;;;13.78;100.00
63970;BME280;50156;37.772;-122.432;2022-10-26T00:59:06;101251.56;;;13.68;100.00
63970;BME280;50156;37.772;-122.432;2022-10-26T01:01:36;101249.21;;;13.62;100.00
63970;BME280;50156;37.772;-122.432;2022-10-26T01:04:06;101246.18;;;13.61;100.00
63970;BME280;50156;37.772;-122.432;2022-10-26T01:06:36;101247.06;;;13.56;100.00
63970;BME280;50156;37.772;-122.432;2022-10-26T01:09:05;101250.21;;;13.49;100.00
63970;BME280;50156;37.772;-122.432;2022-10-26T01:11:34;101249.42;;;13.48;100.00
63970;BME280;50156;37.772;-122.432;2022-10-26T01:14:05;101245.86;;;13.45;100.00
63970;BME280;50156;37.772;-122.432;2022-10-26T01:16:47;101239.98;;;13.44;100.00
63970;BME280;50156;37.772;-122.432;2022-10-26T01:19:37;101238.22;;;13.40;100.00
63970;BME280;50156;37.772;-122.432;2022-10-26T01:22:15;101236.26;;;13.40;100.00
63970;BME280;50156;37.772;-122.432;2022-10-26T01:25:02;101233.13;;;13.42;100.00
63970;BME280;50156;37.772;-122.432;2022-10-26T01:27:38;101231.02;;;13.40;100.00
63970;BME280;50156;37.772;-122.432;2022-10-26T01:30:16;101232.54;;;13.39;100.00
63970;BME280;50156;37.772;-122.432;2022-10-26T01:32:53;101241.13;;;13.38;100.00
63970;BME280;50156;37.772;-122.432;2022-10-26T01:35:28;101243.42;;;13.34;100.00
63970;BME280;50156;37.772;-122.432;2022-10-26T01:38:05;101247.91;;;13.32;100.00
63970;BME280;50156;37.772;-122.432;2022-10-26T01:40:40;101247.32;;;13.32;100.00
63970;BME280;50156;37.772;-122.432;2022-10-26T01:43:12;101247.29;;;13.25;100.00
63970;BME280;50156;37.772;-122.432;2022-10-26T01:45:45;101252.44;;;13.22;100.00
63970;BME280;50156;37.772;-122.432;2022-10-26T01:48:19;101253.37;;;13.20;100.00
63970;BME280;50156;37.772;-122.432;2022-10-26T01:50:51;101247.51;;;13.18;100.00
63970;BME280;50156;37.772;-122.432;2022-10-26T01:53:21;101245.79;;;13.20;100.00
63970;BME280;50156;37.772;-122.432;2022-10-26T01:55:51;101247.71;;;13.21;100.00
63970;BME280;50156;37.772;-122.432;2022-10-26T01:58:54;101252.78;;;13.23;100.00
63970;BME280;50156;37.772;-122.432;2022-10-26T02:02:11;101258.91;;;13.27;100.00
63970;BME280;50156;37.772;-122.432;2022-10-26T02:04:52;101254.10;;;13.27;100.00
63970;BME280;50156;37.772;-122.432;2022-10-26T02:07:32;101252.39;;;13.25;100.00
63970;BME280;50156;37.772;-122.432;2022-10-26T02:10:13;101255.98;;;13.25;100.00
63970;BME280;50156;37.772;-122.432;2022-10-26T02:12:54;101249.41;;;13.27;100.00
63970;BME280;50156;37.772;-122.432;2022-10-26T02:15:33;101256.03;;;13.25;100.00
63970;BME280;50156;37.772;-122.432;2022-10-26T02:18:09;101261.32;;;13.26;100.00
63970;BME280;50156;37.772;-122.432;2022-10-26T02:20:45;101267.78;;;13.24;100.00
63970;BME280;50156;37.772;-122.432;2022-10-26T02:23:16;101272.43;;;13.25;100.00
63970;BME280;50156;37.772;-122.432;2022-10-26T02:25:49;101271.11;;;13.21;100.00
63970;BME280;50156;37.772;-122.432;2022-10-26T02:28:23;101269.37;;;13.13;100.00
63970;BME280;50156;37.772;-122.432;2022-10-26T02:30:56;101276.05;;;13.12;100.00
63970;BME280;50156;37.772;-122.432;2022-10-26T02:33:28;101278.01;;;13.09;100.00
63970;BME280;50156;37.772;-122.432;2022-10-26T02:36:00;101276.18;;;13.05;100.00
63970;BME280;50156;37.772;-122.432;2022-10-26T02:38:32;101273.89;;;13.02;100.00
63970;BME280;50156;37.772;-122.432;2022-10-26T02:41:02;101269.87;;;12.98;100.00
63970;BME280;50156;37.772;-122.432;2022-10-26T02:43:37;101267.75;;;12.93;100.00
63970;BME280;50156;37.772;-122.432;2022-10-26T02:46:12;101272.12;;;12.90;100.00
63970;BME280;50156;37.772;-122.432;2022-10-26T02:48:42;101276.94;;;12.92;100.00
63970;BME280;50156;37.772;-122.432;2022-10-26T02:51:13;101283.70;;;12.90;100.00
63970;BME280;50156;37.772;-122.432;2022-10-26T02:53:48;101288.79;;;12.87;100.00
63970;BME280;50156;37.772;-122.432;2022-10-26T02:56:23;101292.92;;;12.91;100.00
63970;BME280;50156;37.772;-122.432;2022-10-26T02:58:58;101294.62;;;12.89;100.00
63970;BME280;50156;37.772;-122.432;2022-10-26T03:01:30;101301.82;;;12.88;100.00
63970;BME280;50156;37.772;-122.432;2022-10-26T03:04:00;101302.02;;;12.88;100.00
63970;BME280;50156;37.772;-122.432;2022-10-26T03:06:29;101299.52;;;12.83;100.00
63970;BME280;50156;37.772;-122.432;2022-10-26T03:08:59;101299.99;;;12.79;100.00
63970;BME280;50156;37.772;-122.432;2022-10-26T03:11:28;101296.24;;;12.74;100.00
63970;BME280;50156;37.772;-122.432;2022-10-26T03:13:57;101286.94;;;12.61;100.00
63970;BME280;50156;37.772;-122.432;2022-10-26T03:16:25;101279.29;;;12.57;100.00
63970;BME280;50156;37.772;-122.432;2022-10-26T03:18:55;101278.82;;;12.54;100.00
63970;BME280;50156;37.772;-122.432;2022-10-26T03:21:23;101278.59;;;12.52;100.00
63970;BME280;50156;37.772;-122.432;2022-10-26T03:23:54;101279.63;;;12.45;100.00
63970;BME280;50156;37.772;-122.432;2022-10-26T03:26:23;101275.59;;;12.45;100.00
63970;BME280;50156;37.772;-122.432;2022-10-26T03:28:52;101279.64;;;12.41;100.00
63970;BME280;50156;37.772;-122.432;2022-10-26T03:31:21;101281.31;;;12.37;100.00
63970;BME280;50156;37.772;-122.432;2022-10-26T03:33:51;101284.41;;;12.35;100.00
63970;BME280;50156;37.772;-122.432;2022-10-26T03:36:19;101284.24;;;12.34;100.00
63970;BME280;50156;37.772;-122.432;2022-10-26T03:38:49;101279.21;;;12.29;100.00
63970;BME280;50156;37.772;-122.432;2022-10-26T03:41:18;101273.76;;;12.26;100.00
63970;BME280;50156;37.772;-122.432;2022-10-26T03:43:47;101269.67;;;12.17;100.00
63970;BME280;50156;37.772;-122.432;2022-10-26T03:46:17;101266.02;;;12.22;100.00
63970;BME280;50156;37.772;-122.432;2022-10-26T03:48:47;101267.50;;;12.16;100.00
63970;BME280;50156;37.772;-122.432;2022-10-26T03:51:17;101269.73;;;12.21;100.00
63970;BME280;50156;37.772;-122.432;2022-10-26T03:53:46;101267.09;;;12.15;100.00
63970;BME280;50156;37.772;-122.432;2022-10-26T03:56:15;101268.81;;;12.13;100.00
63970;BME280;50156;37.772;-122.432;2022-10-26T03:58:45;101267.42;;;12.09;100.00
63970;BME280;50156;37.772;-122.432;2022-10-26T04:01:14;101265.66;;;12.07;100.00
63970;BME280;50156;37.772;-122.432;2022-10-26T04:03:43;101266.03;;;12.07;100.00
63970;BME280;50156;37.772;-122.432;2022-10-26T04:06:11;101267.54;;;12.00;100.00
63970;BME280;50156;37.772;-122.432;2022-10-26T04:08:40;101271.99;;;12.02;100.00
63970;BME280;50156;37.772;-122.432;2022-10-26T04:11:09;101272.83;;;11.98;100.00
63970;BME280;50156;37.772;-122.432;2022-10-26T04:13:38;101267.83;;;12.03;100.00
63970;BME280;50156;37.772;-122.432;2022-10-26T04:16:06;101269.85;;;12.05;100.00
63970;BME280;50156;37.772;-122.432;2022-10-26T04:18:35;101268.32;;;12.02;100.00
63970;BME280;50156;37.772;-122.432;2022-10-26T04:21:04;101266.57;;;12.01;100.00
63970;BME280;50156;37.772;-122.432;2022-10-26T04:23:32;101268.15;;;12.01;100.00
63970;BME280;50156;37.772;-122.432;2022-10-26T04:26:01;101268.16;;;11.99;100.00
63970;BME280;50156;37.772;-122.432;2022-10-26T04:28:32;101265.60;;;12.02;100.00
63970;BME280;50156;37.772;-122.432;2022-10-26T04:31:00;101263.04;;;12.02;100.00
63970;BME280;50156;37.772;-122.432;2022-10-26T04:33:29;101269.88;;;12.04;100.00
63970;BME280;50156;37.772;-122.432;2022-10-26T04:35:59;101272.55;;;12.02;100.00
63970;BME280;50156;37.772;-122.432;2022-10-26T04:38:27;101269.77;;;12.07;100.00
63970;BME280;50156;37.772;-122.432;2022-10-26T04:40:56;101265.40;;;12.07;100.00
63970;BME280;50156;37.772;-122.432;2022-10-26T04:43:25;101267.32;;;12.07;100.00
63970;BME280;50156;37.772;-122.432;2022-10-26T04:45:55;101269.59;;;12.08;100.00
63970;BME280;50156;37.772;-122.432;2022-10-26T04:48:24;101272.65;;;12.04;100.00
63970;BME280;50156;37.772;-122.432;2022-10-26T04:50:56;101273.21;;;12.01;100.00
63970;BME280;50156;37.772;-122.432;2022-10-26T04:53:25;101270.56;;;12.00;100.00
63970;BME280;50156;37.772;-122.432;2022-10-26T04:55:56;101273.22;;;11.96;100.00
63970;BME280;50156;37.772;-122.432;2022-10-26T04:58:25;101276.96;;;12.00;100.00
63970;BME280;50156;37.772;-122.432;2022-10-26T05:00:55;101282.80;;;11.98;100.00
63970;BME280;50156;37.772;-122.432;2022-10-26T05:03:24;101285.05;;;11.97;100.00
63970;BME280;50156;37.772;-122.432;2022-10-26T05:05:56;101283.52;;;11.94;100.00
63970;BME280;50156;37.772;-122.432;2022-10-26T05:08:28;101286.87;;;11.98;100.00
63970;BME280;50156;37.772;-122.432;2022-10-26T05:10:57;101285.98;;;11.97;100.00
63970;BME280;50156;37.772;-122.432;2022-10-26T05:13:25;101291.21;;;11.98;100.00
63970;BME280;50156;37.772;-122.432;2022-10-26T05:15:54;101293.01;;;11.96;100.00
63970;BME280;50156;37.772;-122.432;2022-10-26T05:18:24;101287.43;;;11.96;100.00
63970;BME280;50156;37.772;-122.432;2022-10-26T05:20:53;101280.41;;;11.99;100.00
63970;BME280;50156;37.772;-122.432;2022-10-26T05:23:22;101287.25;;;11.94;100.00
63970;BME280;50156;37.772;-122.432;2022-10-26T05:25:51;101292.99;;;11.93;100.00
63970;BME280;50156;37.772;-122.432;2022-10-26T05:28:20;101302.78;;;11.95;100.00
63970;BME280;50156;37.772;-122.432;2022-10-26T05:30:49;101299.66;;;11.94;100.00
63970;BME280;50156;37.772;-122.432;2022-10-26T05:33:18;101296.27;;;11.92;100.00
63970;BME280;50156;37.772;-122.432;2022-10-26T05:35:46;101296.94;;;11.89;100.00
63970;BME280;50156;37.772;-122.432;2022-10-26T05:38:16;101297.16;;;11.89;100.00
63970;BME280;50156;37.772;-122.432;2022-10-26T05:40:48;101288.92;;;11.92;100.00
63970;BME280;50156;37.772;-122.432;2022-10-26T05:43:18;101283.64;;;11.94;100.00
63970;BME280;50156;37.772;-122.432;2022-10-26T05:45:48;101283.24;;;11.91;100.00
63970;BME280;50156;37.772;-122.432;2022-10-26T05:48:16;101279.90;;;11.88;100.00
63970;BME280;50156;37.772;-122.432;2022-10-26T05:50:46;101275.90;;;11.92;100.00
63970;BME280;50156;37.772;-122.432;2022-10-26T05:53:14;101272.52;;;11.92;100.00
63970;BME280;50156;37.772;-122.432;2022-10-26T05:55:43;101265.60;;;11.89;100.00
63970;BME280;50156;37.772;-122.432;2022-10-26T05:58:13;101268.10;;;11.89;100.00
63970;BME280;50156;37.772;-122.432;2022-10-26T06:00:51;101270.45;;;11.90;100.00
63970;BME280;50156;37.772;-122.432;2022-10-26T06:03:35;101273.83;;;11.88;100.00
63970;BME280;50156;37.772;-122.432;2022-10-26T06:06:07;101282.79;;;11.80;100.00
63970;BME280;50156;37.772;-122.432;2022-10-26T06:08:40;101286.21;;;11.79;100.00
63970;BME280;50156;37.772;-122.432;2022-10-26T06:11:09;101290.17;;;11.78;100.00
63970;BME280;50156;37.772;-122.432;2022-10-26T06:13:39;101293.48;;;11.73;100.00
63970;BME280;50156;37.772;-122.432;2022-10-26T06:16:26;101295.83;;;11.67;100.00
63970;BME280;50156;37.772;-122.432;2022-10-26T06:19:05;101287.49;;;11.61;100.00
63970;BME280;50156;37.772;-122.432;2022-10-26T06:21:49;101284.22;;;11.56;100.00
63970;BME280;50156;37.772;-122.432;2022-10-26T06:24:29;101291.65;;;11.55;100.00
63970;BME280;50156;37.772;-122.432;2022-10-26T06:27:09;101297.34;;;11.52;100.00
63970;BME280;50156;37.772;-122.432;2022-10-26T06:29:44;101295.82;;;11.50;100.00
63970;BME280;50156;37.772;-122.432;2022-10-26T06:32:17;101296.15;;;11.45;100.00
63970;BME280;50156;37.772;-122.432;2022-10-26T06:34:49;101296.11;;;11.38;100.00
63970;BME280;50156;37.772;-122.432;2022-10-26T06:37:20;101296.60;;;11.38;100.00
63970;BME280;50156;37.772;-122.432;2022-10-26T06:39:50;101294.03;;;11.42;100.00
63970;BME280;50156;37.772;-122.432;2022-10-26T06:42:20;101295.82;;;11.40;100.00
63970;BME280;50156;37.772;-122.432;2022-10-26T06:44:49;101295.05;;;11.44;100.00
63970;BME280;50156;37.772;-122.432;2022-10-26T06:47:22;101287.17;;;11.44;100.00
63970;BME280;50156;37.772;-122.432;2022-10-26T06:50:02;101284.11;;;11.34;100.00
63970;BME280;50156;37.772;-122.432;2022-10-26T06:52:41;101284.76;;;11.42;100.00
63970;BME280;50156;37.772;-122.432;2022-10-26T06:55:14;101283.30;;;11.37;100.00
63970;BME280;50156;37.772;-122.432;2022-10-26T06:57:44;101286.22;;;11.23;100.00
63970;BME280;50156;37.772;-122.432;2022-10-26T07:00:19;101287.99;;;11.23;100.00
63970;BME280;50156;37.772;-122.432;2022-10-26T07:02:49;101285.34;;;11.27;100.00
63970;BME280;50156;37.772;-122.432;2022-10-26T07:05:17;101289.64;;;11.11;100.00
63970;BME280;50156;37.772;-122.432;2022-10-26T07:07:48;101293.92;;;11.14;100.00
63970;BME280;50156;37.772;-122.432;2022-10-26T07:10:17;101297.75;;;11.17;100.00
63970;BME280;50156;37.772;-122.432;2022-10-26T07:12:46;101296.09;;;11.10;100.00
63970;BME280;50156;37.772;-122.432;2022-10-26T07:15:15;101300.16;;;11.09;100.00
63970;BME280;50156;37.772;-122.432;2022-10-26T07:17:45;101304.92;;;11.09;100.00
63970;BME280;50156;37.772;-122.432;2022-10-26T07:20:14;101307.32;;;11.05;100.00
63970;BME280;50156;37.772;-122.432;2022-10-26T07:22:44;101306.88;;;11.08;100.00
63970;BME280;50156;37.772;-122.432;2022-10-26T07:25:12;101306.35;;;11.11;100.00
63970;BME280;50156;37.772;-122.432;2022-10-26T07:27:41;101305.77;;;11.10;100.00
63970;BME280;50156;37.772;-122.432;2022-10-26T07:30:10;101302.91;;;11.05;100.00
63970;BME280;50156;37.772;-122.432;2022-10-26T07:32:39;101297.96;;;11.11;100.00
63970;BME280;50156;37.772;-122.432;2022-10-26T07:35:08;101301.04;;;11.14;100.00
63970;BME280;50156;37.772;-122.432;2022-10-26T07:37:37;101298.62;;;11.14;100.00
63970;BME280;50156;37.772;-122.432;2022-10-26T07:40:07;101298.02;;;11.16;100.00
63970;BME280;50156;37.772;-122.432;2022-10-26T07:42:35;101299.11;;;11.21;100.00
63970;BME280;50156;37.772;-122.432;2022-10-26T07:45:04;101301.93;;;11.15;100.00
63970;BME280;50156;37.772;-122.432;2022-10-26T07:47:33;101298.95;;;11.10;100.00
63970;BME280;50156;37.772;-122.432;2022-10-26T07:50:02;101302.04;;;11.07;100.00
63970;BME280;50156;37.772;-122.432;2022-10-26T07:52:31;101298.09;;;11.05;100.00
63970;BME280;50156;37.772;-122.432;2022-10-26T07:55:00;101298.06;;;11.09;100.00
63970;BME280;50156;37.772;-122.432;2022-10-26T07:57:28;101305.27;;;11.05;100.00
63970;BME280;50156;37.772;-122.432;2022-10-26T07:59:56;101304.69;;;11.00;100.00
63970;BME280;50156;37.772;-122.432;2022-10-26T08:02:25;101294.99;;;10.99;100.00
63970;BME280;50156;37.772;-122.432;2022-10-26T08:04:53;101294.55;;;11.01;100.00
63970;BME280;50156;37.772;-122.432;2022-10-26T08:07:22;101293.15;;;11.03;100.00
63970;BME280;50156;37.772;-122.432;2022-10-26T08:09:51;101290.94;;;11.05;100.00
63970;BME280;50156;37.772;-122.432;2022-10-26T08:12:19;101284.61;;;10.98;100.00
63970;BME280;50156;37.772;-122.432;2022-10-26T08:14:48;101283.17;;;10.88;100.00
63970;BME280;50156;37.772;-122.432;2022-10-26T08:17:17;101283.38;;;10.87;100.00
63970;BME280;50156;37.772;-122.432;2022-10-26T08:19:47;101285.63;;;10.84;100.00
63970;BME280;50156;37.772;-122.432;2022-10-26T08:22:16;101284.76;;;10.85;100.00
63970;BME280;50156;37.772;-122.432;2022-10-26T08:24:45;101293.90;;;10.91;100.00
63970;BME280;50156;37.772;-122.432;2022-10-26T08:27:14;101293.27;;;10.90;100.00
63970;BME280;50156;37.772;-122.432;2022-10-26T08:29:43;101299.72;;;10.93;100.00
63970;BME280;50156;37.772;-122.432;2022-10-26T08:32:12;101301.20;;;10.94;100.00
63970;BME280;50156;37.772;-122.432;2022-10-26T08:34:40;101299.80;;;10.94;100.00
63970;BME280;50156;37.772;-122.432;2022-10-26T08:37:09;101298.51;;;10.89;100.00
63970;BME280;50156;37.772;-122.432;2022-10-26T08:39:37;101301.37;;;10.92;100.00
63970;BME280;50156;37.772;-122.432;2022-10-26T08:42:10;101296.80;;;10.91;100.00
63970;BME280;50156;37.772;-122.432;2022-10-26T08:44:44;101298.25;;;10.91;100.00
63970;BME280;50156;37.772;-122.432;2022-10-26T08:47:19;101302.24;;;10.91;100.00
63970;BME280;50156;37.772;-122.432;2022-10-26T08:49:52;101301.80;;;10.78;100.00
63970;BME280;50156;37.772;-122.432;2022-10-26T08:52:28;101300.52;;;10.76;100.00
63970;BME280;50156;37.772;-122.432;2022-10-26T08:55:02;101299.78;;;10.85;100.00
63970;BME280;50156;37.772;-122.432;2022-10-26T08:57:35;101297.81;;;10.78;100.00
63970;BME280;50156;37.772;-122.432;2022-10-26T09:00:09;101293.04;;;10.71;100.00
63970;BME280;50156;37.772;-122.432;2022-10-26T09:02:38;101298.08;;;10.79;100.00
63970;BME280;50156;37.772;-122.432;2022-10-26T09:05:15;101302.99;;;10.78;100.00
63970;BME280;50156;37.772;-122.432;2022-10-26T09:07:52;101304.72;;;10.75;100.00
63970;BME280;50156;37.772;-122.432;2022-10-26T09:10:34;101308.09;;;10.77;100.00
63970;BME280;50156;37.772;-122.432;2022-10-26T09:13:17;101313.20;;;10.70;100.00
63970;BME280;50156;37.772;-122.432;2022-10-26T09:16:04;101314.48;;;10.70;100.00
63970;BME280;50156;37.772;-122.432;2022-10-26T09:18:45;101309.14;;;10.65;100.00
63970;BME280;50156;37.772;-122.432;2022-10-26T09:21:27;101306.98;;;10.64;100.00
63970;BME280;50156;37.772;-122.432;2022-10-26T09:24:04;101312.83;;;10.52;100.00
63970;BME280;50156;37.772;-122.432;2022-10-26T09:26:44;101322.11;;;10.58;100.00
63970;BME280;50156;37.772;-122.432;2022-10-26T09:29:16;101324.04;;;10.50;100.00
63970;BME280;50156;37.772;-122.432;2022-10-26T09:31:48;101325.19;;;10.51;100.00
63970;BME280;50156;37.772;-122.432;2022-10-26T09:34:24;101324.13;;;10.52;100.00
63970;BME280;50156;37.772;-122.432;2022-10-26T09:36:55;101328.16;;;10.41;100.00
63970;BME280;50156;37.772;-122.432;2022-10-26T09:39:31;101335.97;;;10.46;100.00
63970;BME280;50156;37.772;-122.432;2022-10-26T09:42:13;101335.22;;;10.34;100.00
63970;BME280;50156;37.772;-122.432;2022-10-26T09:44:48;101332.09;;;10.32;100.00
63970;BME280;50156;37.772;-122.432;2022-10-26T09:47:29;101333.83;;;10.34;100.00
63970;BME280;50156;37.772;-122.432;2022-10-26T09:50:06;101333.14;;;10.38;100.00
63970;BME280;50156;37.772;-122.432;2022-10-26T09:52:41;101330.25;;;10.36;100.00
63970;BME280;50156;37.772;-122.432;2022-10-26T09:55:11;101326.86;;;10.25;100.00
63970;BME280;50156;37.772;-122.432;2022-10-26T09:57:42;101322.78;;;10.30;100.00
63970;BME280;50156;37.772;-122.432;2022-10-26T10:00:14;101314.16;;;10.26;100.00
63970;BME280;50156;37.772;-122.432;2022-10-26T10:02:44;101312.28;;;10.21;100.00
63970;BME280;50156;37.772;-122.432;2022-10-26T10:05:30;101312.55;;;10.13;100.00
63970;BME280;50156;37.772;-122.432;2022-10-26T10:08:17;101311.46;;;10.04;100.00
63970;BME280;50156;37.772;-122.432;2022-10-26T10:11:05;101320.52;;;9.94;100.00
63970;BME280;50156;37.772;-122.432;2022-10-26T10:13:37;101328.27;;;9.77;100.00
63970;BME280;50156;37.772;-122.432;2022-10-26T10:16:10;101328.52;;;9.73;100.00
63970;BME280;50156;37.772;-122.432;2022-10-26T10:18:40;101327.38;;;9.67;100.00
63970;BME280;50156;37.772;-122.432;2022-10-26T10:21:10;101330.11;;;9.57;100.00
63970;BME280;50156;37.772;-122.432;2022-10-26T10:23:48;101328.20;;;9.70;100.00
63970;BME280;50156;37.772;-122.432;2022-10-26T10:26:18;101328.39;;;9.70;100.00
63970;BME280;50156;37.772;-122.432;2022-10-26T10:28:56;101326.92;;;9.64;100.00
63970;BME280;50156;37.772;-122.432;2022-10-26T10:31:29;101321.71;;;9.66;100.00
63970;BME280;50156;37.772;-122.432;2022-10-26T10:33:58;101314.39;;;9.66;100.00
63970;BME280;50156;37.772;-122.432;2022-10-26T10:36:28;101312.88;;;9.63;100.00
63970;BME280;50156;37.772;-122.432;2022-10-26T10:38:58;101310.63;;;9.57;100.00
63970;BME280;50156;37.772;-122.432;2022-10-26T10:41:29;101317.61;;;9.59;100.00
63970;BME280;50156;37.772;-122.432;2022-10-26T10:44:04;101316.02;;;9.68;100.00
63970;BME280;50156;37.772;-122.432;2022-10-26T10:46:35;101313.47;;;9.64;100.00
63970;BME280;50156;37.772;-122.432;2022-10-26T10:49:05;101313.39;;;9.67;100.00
63970;BME280;50156;37.772;-122.432;2022-10-26T10:51:38;101306.96;;;9.71;100.00
63970;BME280;50156;37.772;-122.432;2022-10-26T10:54:21;101301.42;;;9.76;100.00
63970;BME280;50156;37.772;-122.432;2022-10-26T10:56:53;101295.32;;;9.77;100.00
63970;BME280;50156;37.772;-122.432;2022-10-26T10:59:48;101294.14;;;9.81;100.00
63970;BME280;50156;37.772;-122.432;2022-10-26T11:02:39;101295.80;;;9.81;100.00
63970;BME280;50156;37.772;-122.432;2022-10-26T11:05:22;101297.37;;;9.90;100.00
63970;BME280;50156;37.772;-122.432;2022-10-26T11:07:56;101295.83;;;9.84;100.00
63970;BME280;50156;37.772;-122.432;2022-10-26T11:10:34;101292.88;;;9.78;100.00
63970;BME280;50156;37.772;-122.432;2022-10-26T11:13:12;101293.93;;;9.77;100.00
63970;BME280;50156;37.772;-122.432;2022-10-26T11:15:45;101297.09;;;9.64;100.00
63970;BME280;50156;37.772;-122.432;2022-10-26T11:18:17;101298.06;;;9.66;100.00
63970;BME280;50156;37.772;-122.432;2022-10-26T11:20:53;101298.98;;;9.59;100.00
63970;BME280;50156;37.772;-122.432;2022-10-26T11:23:28;101307.06;;;9.44;100.00
63970;BME280;50156;37.772;-122.432;2022-10-26T11:26:04;101313.64;;;9.46;100.00
63970;BME280;50156;37.772;-122.432;2022-10-26T11:28:40;101316.27;;;9.38;100.00
63970;BME280;50156;37.772;-122.432;2022-10-26T11:31:15;101317.35;;;9.35;100.00
63970;BME280;50156;37.772;-122.432;2022-10-26T11:33:58;101310.01;;;9.37;100.00
63970;BME280;50156;37.772;-122.432;2022-10-26T11:36:29;101308.75;;;9.41;100.00
63970;BME280;50156;37.772;-122.432;2022-10-26T11:39:09;101305.78;;;9.54;100.00
63970;BME280;50156;37.772;-122.432;2022-10-26T11:41:44;101298.76;;;9.68;100.00
63970;BME280;50156;37.772;-122.432;2022-10-26T11:44:21;101294.63;;;9.74;100.00
63970;BME280;50156;37.772;-122.432;2022-10-26T11:46:57;101292.03;;;9.83;100.00
63970;BME280;50156;37.772;-122.432;2022-10-26T11:49:36;101293.70;;;10.02;100.00
63970;BME280;50156;37.772;-122.432;2022-10-26T11:52:12;101299.78;;;10.06;100.00
63970;BME280;50156;37.772;-122.432;2022-10-26T11:54:45;101304.50;;;10.08;100.00
63970;BME280;50156;37.772;-122.432;2022-10-26T11:57:16;101313.87;;;10.06;100.00
63970;BME280;50156;37.772;-122.432;2022-10-26T11:59:49;101314.20;;;10.09;100.00
63970;BME280;50156;37.772;-122.432;2022-10-26T12:02:22;101319.71;;;10.09;100.00
63970;BME280;50156;37.772;-122.432;2022-10-26T12:04:54;101320.54;;;10.08;100.00
63970;BME280;50156;37.772;-122.432;2022-10-26T12:07:28;101325.17;;;10.07;100.00
63970;BME280;50156;37.772;-122.432;2022-10-26T12:09:59;101325.59;;;10.03;100.00
63970;BME280;50156;37.772;-122.432;2022-10-26T12:12:34;101323.68;;;9.95;100.00
63970;BME280;50156;37.772;-122.432;2022-10-26T12:15:17;101325.60;;;10.00;100.00
63970;BME280;50156;37.772;-122.432;2022-10-26T12:17:54;101320.06;;;9.92;100.00
63970;BME280;50156;37.772;-122.432;2022-10-26T12:20:51;101314.61;;;9.91;100.00
63970;BME280;50156;37.772;-122.432;2022-10-26T12:23:22;101309.20;;;9.76;100.00
63970;BME280;50156;37.772;-122.432;2022-10-26T12:25:50;101317.99;;;9.91;100.00
63970;BME280;50156;37.772;-122.432;2022-10-26T12:29:41;101324.54;;;9.98;100.00
63970;BME280;50156;37.772;-122.432;2022-10-26T12:32:52;101319.68;;;10.01;100.00
63970;BME280;50156;37.772;-122.432;2022-10-26T12:35:40;101324.17;;;9.90;100.00
63970;BME280;50156;37.772;-122.432;2022-10-26T12:39:00;101332.44;;;9.96;100.00
63970;BME280;50156;37.772;-122.432;2022-10-26T12:41:28;101335.28;;;9.96;100.00
63970;BME280;50156;37.772;-122.432;2022-10-26T12:44:02;101340.54;;;10.01;100.00